createdAt,value
2023-10-29T00:01:17.362Z,100035.50
2023-10-29T00:06:20.089Z,100051.53
2023-10-29T00:11:23.175Z,100051.31
2023-10-29T00:16:25.977Z,100051.09
2023-10-29T00:21:30.900Z,100055.00
2023-10-29T00:26:33.605Z,100047.03
2023-10-29T00:31:36.980Z,100044.72
2023-10-29T00:36:39.756Z,100057.38
2023-10-29T00:41:43.805Z,100062.41
2023-10-29T00:46:47.321Z,100063.72
2023-10-29T00:51:50.779Z,100056.34
2023-10-29T00:56:55.412Z,100071.41
2023-10-29T01:01:58.231Z,100075.84
2023-10-29T01:07:01.014Z,100068.41
2023-10-29T01:12:03.939Z,100058.63
2023-10-29T01:17:06.899Z,100085.81
2023-10-29T01:22:09.884Z,100085.69
2023-10-29T01:27:12.663Z,100091.44
2023-10-29T01:32:15.655Z,100094.59
2023-10-29T01:37:18.446Z,100106.63
2023-10-29T01:42:21.077Z,100107.91
2023-10-29T01:47:23.802Z,100094.38
2023-10-29T01:52:26.578Z,100123.75
2023-10-29T01:57:29.298Z,100132.63
2023-10-29T02:02:32.068Z,100128.31
2023-10-29T02:07:35.504Z,100131.94
2023-10-29T02:12:38.427Z,100136.59
2023-10-29T02:17:41.443Z,100148.09
2023-10-29T02:22:44.310Z,100130.44
2023-10-29T02:27:46.985Z,100149.22
2023-10-29T02:32:49.752Z,100160.50
2023-10-29T02:37:52.428Z,100182.72
2023-10-29T02:42:55.554Z,100193.91
2023-10-29T02:47:58.329Z,100197.88
2023-10-29T02:53:01.139Z,100190.84
2023-10-29T02:58:03.994Z,100213.16
2023-10-29T03:03:08.477Z,100242.25
2023-10-29T03:08:11.380Z,100218.88
2023-10-29T03:13:14.100Z,100232.34
2023-10-29T03:18:18.233Z,100264.81
2023-10-29T03:23:21.308Z,100268.84
2023-10-29T03:28:24.029Z,100272.38
2023-10-29T03:33:26.987Z,100289.94
2023-10-29T03:38:29.754Z,100255.94
2023-10-29T03:43:33.425Z,100278.16
2023-10-29T03:48:36.284Z,100297.31
2023-10-29T03:53:39.166Z,100313.78
2023-10-29T03:58:42.117Z,100323.81
2023-10-29T04:03:45.434Z,100322.38
2023-10-29T04:08:48.715Z,100330.72
2023-10-29T04:13:54.093Z,100354.97
2023-10-29T04:18:56.833Z,100344.56
2023-10-29T04:23:59.634Z,100375.84
2023-10-29T04:29:02.389Z,100401.94
2023-10-29T04:34:05.364Z,100403.38
2023-10-29T04:39:08.121Z,100412.25
2023-10-29T04:44:10.795Z,100428.91
2023-10-29T04:49:13.681Z,100426.63
2023-10-29T04:54:16.404Z,100444.47
2023-10-29T04:59:19.146Z,100457.00
2023-10-29T05:04:21.990Z,100461.06
2023-10-29T05:09:24.764Z,100471.41
2023-10-29T05:14:27.424Z,100472.84
2023-10-29T05:19:30.110Z,100471.75
2023-10-29T05:24:32.783Z,100468.53
2023-10-29T05:29:36.361Z,100454.75
2023-10-29T05:34:40.772Z,100448.69
2023-10-29T05:39:43.511Z,100473.97
2023-10-29T05:44:46.250Z,100487.53
2023-10-29T05:49:49.168Z,100489.41
2023-10-29T05:54:52.446Z,100490.84
2023-10-29T05:59:55.156Z,100497.72
2023-10-29T06:04:58.477Z,100499.69
2023-10-29T06:10:01.286Z,100498.84
2023-10-29T06:15:04.887Z,100505.19
2023-10-29T06:20:12.472Z,100501.88
2023-10-29T06:25:16.425Z,100517.50
2023-10-29T06:30:19.283Z,100518.41
2023-10-29T06:35:21.972Z,100523.22
2023-10-29T06:40:26.049Z,100514.91
2023-10-29T06:45:28.505Z,100539.50
2023-10-29T06:50:31.207Z,100541.31
2023-10-29T06:55:33.945Z,100553.97
2023-10-29T07:00:36.621Z,100553.59
2023-10-29T07:05:39.472Z,100544.78
2023-10-29T07:10:42.653Z,100558.66
2023-10-29T07:15:45.434Z,100580.72
2023-10-29T07:20:48.199Z,100594.25
2023-10-29T07:25:51.301Z,100608.53
2023-10-29T07:30:53.992Z,100600.19
2023-10-29T07:35:56.818Z,100612.09
2023-10-29T07:40:59.489Z,100622.25
2023-10-29T07:46:05.666Z,100623.09
2023-10-29T07:51:10.974Z,100631.22
2023-10-29T07:56:17.944Z,100647.19
2023-10-29T08:01:21.058Z,100663.88
2023-10-29T08:06:24.065Z,100665.13
2023-10-29T08:11:26.839Z,100669.81
2023-10-29T08:16:29.529Z,100674.16
2023-10-29T08:21:32.688Z,100662.69
2023-10-29T08:26:35.459Z,100691.97
2023-10-29T08:31:38.559Z,100686.53
2023-10-29T08:36:41.089Z,100681.38
2023-10-29T08:41:43.864Z,100690.56
2023-10-29T08:46:47.681Z,100695.19
2023-10-29T08:51:50.459Z,100692.84
2023-10-29T08:56:53.280Z,100700.34
2023-10-29T09:01:56.398Z,100709.50
2023-10-29T09:06:59.313Z,100710.94
2023-10-29T09:12:02.021Z,100703.69
2023-10-29T09:17:04.803Z,100705.94
2023-10-29T09:22:08.183Z,100716.81
2023-10-29T09:27:11.103Z,100721.84
2023-10-29T09:32:15.356Z,100717.44
2023-10-29T09:37:18.008Z,100727.50
2023-10-29T09:42:25.879Z,100733.41
2023-10-29T09:47:29.054Z,100756.34
2023-10-29T09:52:34.164Z,100753.28
2023-10-29T09:57:36.872Z,100770.03
2023-10-29T10:02:53.124Z,100762.56
2023-10-29T10:07:59.488Z,100757.25
2023-10-29T10:13:02.882Z,100751.78
2023-10-29T10:18:07.002Z,100772.97
2023-10-29T10:23:13.614Z,100778.84
2023-10-29T10:28:16.397Z,100789.88
2023-10-29T10:33:24.029Z,100784.09
2023-10-29T10:38:26.927Z,100790.53
2023-10-29T10:43:29.917Z,100782.53
2023-10-29T10:48:36.095Z,100790.72
2023-10-29T10:53:42.648Z,100796.44
2023-10-29T10:58:47.038Z,100819.38
2023-10-29T11:03:50.596Z,100813.69
2023-10-29T11:08:54.174Z,100816.56
2023-10-29T11:14:17.102Z,100811.75
2023-10-29T11:19:43.980Z,100810.16
2023-10-29T11:25:13.042Z,100817.66
2023-10-29T11:30:19.932Z,100828.34
2023-10-29T11:35:23.422Z,100827.22
2023-10-29T11:40:32.951Z,100846.19
2023-10-29T11:45:35.790Z,100856.53
2023-10-29T11:50:39.158Z,100845.75
2023-10-29T11:55:46.374Z,100848.00
2023-10-29T12:00:49.293Z,100864.75
2023-10-29T12:05:53.261Z,100865.47
2023-10-29T12:10:57.284Z,100872.72
2023-10-29T12:16:02.281Z,100884.91
2023-10-29T12:21:10.335Z,100897.78
2023-10-29T12:26:14.743Z,100908.72
2023-10-29T12:31:28.536Z,100909.34
2023-10-29T12:36:31.653Z,100919.94
2023-10-29T12:41:34.377Z,100922.59
2023-10-29T12:46:51.165Z,100931.41
2023-10-29T12:51:56.033Z,100936.84
2023-10-29T12:57:03.471Z,100929.56
2023-10-29T13:02:07.595Z,100928.13
2023-10-29T13:07:12.934Z,100946.81
2023-10-29T13:12:17.699Z,100958.84
2023-10-29T13:17:21.004Z,100980.38
2023-10-29T13:22:23.868Z,100980.78
2023-10-29T13:27:26.859Z,100990.75
2023-10-29T13:32:29.829Z,101009.06
2023-10-29T13:37:32.771Z,101013.59
2023-10-29T13:42:35.554Z,101029.66
2023-10-29T13:47:38.302Z,101041.19
2023-10-29T13:52:43.328Z,101028.34
2023-10-29T13:58:05.248Z,101049.44
2023-10-29T14:03:08.168Z,101049.28
2023-10-29T14:08:10.983Z,101039.06
2023-10-29T14:13:13.749Z,101055.53
2023-10-29T14:18:16.713Z,101073.50
2023-10-29T14:23:20.188Z,101069.53
2023-10-29T14:28:22.860Z,101078.91
2023-10-29T14:33:25.625Z,101097.53
2023-10-29T14:38:28.895Z,101105.47
2023-10-29T14:43:31.888Z,101113.88
2023-10-29T14:48:34.761Z,101122.44
2023-10-29T14:53:38.102Z,101120.25
2023-10-29T14:58:40.886Z,101121.88
2023-10-29T15:03:44.257Z,101132.03
2023-10-29T15:08:47.339Z,101127.19
2023-10-29T15:13:50.025Z,101135.75
2023-10-29T15:18:52.919Z,101129.59
2023-10-29T15:23:55.791Z,101131.06
2023-10-29T15:28:58.779Z,101137.75
2023-10-29T15:34:01.562Z,101142.50
2023-10-29T15:39:06.304Z,101145.75
2023-10-29T15:44:09.366Z,101154.94
2023-10-29T15:49:13.389Z,101154.94
2023-10-29T15:54:16.313Z,101158.09
2023-10-29T15:59:21.447Z,101169.69
2023-10-29T16:04:24.451Z,101178.50
2023-10-29T16:09:27.323Z,101176.34
2023-10-29T16:14:30.088Z,101180.13
2023-10-29T16:19:33.003Z,101182.06
2023-10-29T16:24:35.803Z,101196.47
2023-10-29T16:29:39.318Z,101198.06
2023-10-29T16:34:42.316Z,101200.66
2023-10-29T16:39:45.129Z,101195.41
2023-10-29T16:44:47.938Z,101215.91
2023-10-29T16:49:51.439Z,101225.63
2023-10-29T16:54:54.318Z,101233.31
2023-10-29T16:59:57.350Z,101237.13
2023-10-29T17:05:00.295Z,101241.38
2023-10-29T17:10:03.092Z,101254.53
2023-10-29T17:15:09.489Z,101257.75
2023-10-29T17:20:12.442Z,101259.00
2023-10-29T17:25:15.180Z,101260.44
2023-10-29T17:30:19.530Z,101253.53
2023-10-29T17:35:22.316Z,101266.06
2023-10-29T17:40:25.808Z,101277.78
2023-10-29T17:45:29.240Z,101279.53
2023-10-29T17:50:32.876Z,101295.03
2023-10-29T17:55:35.599Z,101294.72
2023-10-29T18:00:38.345Z,101296.19
2023-10-29T18:05:41.056Z,101311.31
2023-10-29T18:10:44.119Z,101316.25
2023-10-29T18:15:47.072Z,101323.38
2023-10-29T18:20:50.368Z,101335.50
2023-10-29T18:25:53.185Z,101349.78
2023-10-29T18:30:55.987Z,101343.66
2023-10-29T18:36:09.026Z,101350.41
2023-10-29T18:41:14.751Z,101357.44
2023-10-29T18:46:19.766Z,101363.44
2023-10-29T18:51:24.967Z,101378.56
2023-10-29T18:56:27.652Z,101382.28
2023-10-29T19:01:30.522Z,101390.13
2023-10-29T19:06:33.376Z,101402.44
2023-10-29T19:11:36.960Z,101393.53
2023-10-29T19:16:39.863Z,101408.66
2023-10-29T19:21:42.828Z,101399.81
2023-10-29T19:26:45.576Z,101411.06
2023-10-29T19:31:48.322Z,101415.09
2023-10-29T19:36:51.134Z,101412.72
2023-10-29T19:41:53.801Z,101416.81
2023-10-29T19:46:56.724Z,101427.53
2023-10-29T19:51:59.476Z,101426.47
2023-10-29T19:57:02.267Z,101443.59
2023-10-29T20:02:04.974Z,101435.91
2023-10-29T20:07:07.641Z,101437.69
2023-10-29T20:12:10.354Z,101451.47
2023-10-29T20:17:13.214Z,101455.25
2023-10-29T20:22:16.067Z,101478.63
2023-10-29T20:27:18.821Z,101481.00
2023-10-29T20:32:21.710Z,101495.84
2023-10-29T20:37:24.407Z,101512.63
2023-10-29T20:42:27.304Z,101518.28
2023-10-29T20:47:30.382Z,101516.66
2023-10-29T20:52:34.026Z,101530.19
2023-10-29T20:57:36.870Z,101528.69
2023-10-29T21:02:39.618Z,101550.66
2023-10-29T21:07:42.332Z,101554.28
2023-10-29T21:12:44.925Z,101557.41
2023-10-29T21:17:48.257Z,101554.91
2023-10-29T21:22:50.884Z,101570.53
2023-10-29T21:27:53.786Z,101558.13
2023-10-29T21:32:57.420Z,101572.59
2023-10-29T21:38:00.226Z,101582.16
2023-10-29T21:43:03.623Z,101584.78
2023-10-29T21:48:06.779Z,101602.63
2023-10-29T21:53:09.612Z,101606.44
2023-10-29T21:58:12.650Z,101621.53
2023-10-29T22:03:15.546Z,101612.91
2023-10-29T22:08:18.377Z,101614.91
2023-10-29T22:13:21.032Z,101626.00
2023-10-29T22:18:23.733Z,101633.81
2023-10-29T22:23:26.420Z,101637.97
2023-10-29T22:28:29.169Z,101641.91
2023-10-29T22:33:32.777Z,101651.66
2023-10-29T22:38:35.566Z,101673.91
2023-10-29T22:43:38.453Z,101679.22
2023-10-29T22:48:41.110Z,101676.19
2023-10-29T22:53:46.039Z,101686.50
2023-10-29T22:58:48.689Z,101690.16
2023-10-29T23:03:51.382Z,101695.69
2023-10-29T23:08:54.710Z,101700.16
2023-10-29T23:13:57.352Z,101715.44
2023-10-29T23:19:00.007Z,101723.25
2023-10-29T23:24:02.826Z,101735.50
2023-10-29T23:29:05.600Z,101741.88
2023-10-29T23:34:08.284Z,101740.78
2023-10-29T23:39:11.160Z,101726.88
2023-10-29T23:44:13.803Z,101752.44
2023-10-29T23:49:16.452Z,101755.78
2023-10-29T23:54:19.223Z,101762.75
2023-10-29T23:59:22.040Z,101769.94
